sensor_id;sensor_type;location;lat;lon;timestamp;P1;durP1;ratioP1;P2;durP2;ratioP2
8104;SDS011;4095;48.942;9.104;2023-09-12T00:01:30;12.27;;;9.70;;
8104;SDS011;4095;48.942;9.104;2023-09-12T00:03:57;11.80;;;10.37;;
8104;SDS011;4095;48.942;9.104;2023-09-12T00:06:23;10.90;;;9.60;;
8104;SDS011;4095;48.942;9.104;2023-09-12T00:08:49;11.77;;;9.37;;
8104;SDS011;4095;48.942;9.104;2023-09-12T00:11:16;13.90;;;10.40;;
8104;SDS011;4095;48.942;9.104;2023-09-12T00:13:41;13.30;;;10.53;;
8104;SDS011;4095;48.942;9.104;2023-09-12T00:16:07;14.70;;;11.10;;
8104;SDS011;4095;48.942;9.104;2023-09-12T00:18:36;11.90;;;9.63;;
8104;SDS011;4095;48.942;9.104;2023-09-12T00:21:05;11.10;;;9.73;;
8104;SDS011;4095;48.942;9.104;2023-09-12T00:23:30;12.60;;;9.80;;
8104;SDS011;4095;48.942;9.104;2023-09-12T00:25:56;15.27;;;9.77;;
8104;SDS011;4095;48.942;9.104;2023-09-12T00:28:22;12.93;;;9.80;;
8104;SDS011;4095;48.942;9.104;2023-09-12T00:30:48;11.77;;;9.53;;
8104;SDS011;4095;48.942;9.104;2023-09-12T00:33:14;14.80;;;9.73;;
8104;SDS011;4095;48.942;9.104;2023-09-12T00:35:40;12.07;;;9.20;;
8104;SDS011;4095;48.942;9.104;2023-09-12T00:38:05;13.77;;;9.73;;
8104;SDS011;4095;48.942;9.104;2023-09-12T00:40:31;12.50;;;9.13;;
8104;SDS011;4095;48.942;9.104;2023-09-12T00:42:57;10.73;;;9.63;;
8104;SDS011;4095;48.942;9.104;2023-09-12T00:45:23;11.10;;;9.53;;
8104;SDS011;4095;48.942;9.104;2023-09-12T00:47:49;10.33;;;9.13;;
8104;SDS011;4095;48.942;9.104;2023-09-12T00:50:15;11.87;;;9.10;;
8104;SDS011;4095;48.942;9.104;2023-09-12T00:52:42;14.03;;;9.53;;
8104;SDS011;4095;48.942;9.104;2023-09-12T00:55:09;9.97;;;8.90;;
8104;SDS011;4095;48.942;9.104;2023-09-12T00:57:34;11.67;;;10.07;;
8104;SDS011;4095;48.942;9.104;2023-09-12T01:00:04;15.13;;;9.70;;
8104;SDS011;4095;48.942;9.104;2023-09-12T01:02:40;10.53;;;9.37;;
8104;SDS011;4095;48.942;9.104;2023-09-12T01:05:07;12.17;;;10.03;;
8104;SDS011;4095;48.942;9.104;2023-09-12T01:07:34;11.37;;;10.13;;
8104;SDS011;4095;48.942;9.104;2023-09-12T01:10:01;11.83;;;10.07;;
8104;SDS011;4095;48.942;9.104;2023-09-12T01:12:27;10.77;;;9.67;;
8104;SDS011;4095;48.942;9.104;2023-09-12T01:14:54;14.40;;;9.90;;
8104;SDS011;4095;48.942;9.104;2023-09-12T01:17:21;12.17;;;9.67;;
8104;SDS011;4095;48.942;9.104;2023-09-12T01:19:47;12.70;;;9.87;;
8104;SDS011;4095;48.942;9.104;2023-09-12T01:25:07;20.03;;;9.90;;
8104;SDS011;4095;48.942;9.104;2023-09-12T01:27:51;11.93;;;9.60;;
8104;SDS011;4095;48.942;9.104;2023-09-12T01:30:20;12.80;;;10.17;;
8104;SDS011;4095;48.942;9.104;2023-09-12T01:32:47;11.53;;;9.73;;
8104;SDS011;4095;48.942;9.104;2023-09-12T01:35:13;12.33;;;8.97;;
8104;SDS011;4095;48.942;9.104;2023-09-12T01:37:39;11.23;;;9.10;;
8104;SDS011;4095;48.942;9.104;2023-09-12T01:40:05;12.57;;;8.97;;
8104;SDS011;4095;48.942;9.104;2023-09-12T01:42:35;12.10;;;9.93;;
8104;SDS011;4095;48.942;9.104;2023-09-12T01:45:03;10.70;;;8.90;;
8104;SDS011;4095;48.942;9.104;2023-09-12T01:47:30;11.03;;;9.80;;
8104;SDS011;4095;48.942;9.104;2023-09-12T01:49:58;12.10;;;9.57;;
8104;SDS011;4095;48.942;9.104;2023-09-12T01:52:25;10.93;;;9.53;;
8104;SDS011;4095;48.942;9.104;2023-09-12T01:54:52;12.00;;;9.63;;
8104;SDS011;4095;48.942;9.104;2023-09-12T01:57:19;11.97;;;10.20;;
8104;SDS011;4095;48.942;9.104;2023-09-12T01:59:46;11.73;;;9.70;;
8104;SDS011;4095;48.942;9.104;2023-09-12T02:02:15;13.23;;;10.30;;
8104;SDS011;4095;48.942;9.104;2023-09-12T02:04:41;10.03;;;9.03;;
8104;SDS011;4095;48.942;9.104;2023-09-12T02:07:11;13.13;;;11.13;;
8104;SDS011;4095;48.942;9.104;2023-09-12T02:09:37;12.13;;;10.33;;
8104;SDS011;4095;48.942;9.104;2023-09-12T02:12:02;15.13;;;10.60;;
8104;SDS011;4095;48.942;9.104;2023-09-12T02:14:28;12.80;;;10.17;;
8104;SDS011;4095;48.942;9.104;2023-09-12T02:16:54;13.13;;;9.80;;
8104;SDS011;4095;48.942;9.104;2023-09-12T02:19:19;14.73;;;10.77;;
8104;SDS011;4095;48.942;9.104;2023-09-12T02:21:45;12.90;;;9.83;;
8104;SDS011;4095;48.942;9.104;2023-09-12T02:24:10;13.27;;;10.10;;
8104;SDS011;4095;48.942;9.104;2023-09-12T02:26:36;11.33;;;9.90;;
8104;SDS011;4095;48.942;9.104;2023-09-12T02:29:02;10.77;;;9.60;;
8104;SDS011;4095;48.942;9.104;2023-09-12T02:31:30;12.17;;;9.93;;
8104;SDS011;4095;48.942;9.104;2023-09-12T02:33:56;11.73;;;9.00;;
8104;SDS011;4095;48.942;9.104;2023-09-12T02:36:21;10.97;;;9.50;;
8104;SDS011;4095;48.942;9.104;2023-09-12T02:38:47;10.50;;;9.40;;
8104;SDS011;4095;48.942;9.104;2023-09-12T02:41:12;11.77;;;9.63;;
8104;SDS011;4095;48.942;9.104;2023-09-12T02:43:38;13.40;;;9.33;;
8104;SDS011;4095;48.942;9.104;2023-09-12T02:46:03;12.33;;;9.67;;
8104;SDS011;4095;48.942;9.104;2023-09-12T02:48:29;11.83;;;9.33;;
8104;SDS011;4095;48.942;9.104;2023-09-12T02:50:54;12.00;;;9.10;;
8104;SDS011;4095;48.942;9.104;2023-09-12T02:53:20;12.47;;;9.80;;
8104;SDS011;4095;48.942;9.104;2023-09-12T02:55:45;10.80;;;9.67;;
8104;SDS011;4095;48.942;9.104;2023-09-12T02:58:11;10.47;;;9.43;;
8104;SDS011;4095;48.942;9.104;2023-09-12T03:00:40;11.33;;;9.67;;
8104;SDS011;4095;48.942;9.104;2023-09-12T03:03:06;15.97;;;10.50;;
8104;SDS011;4095;48.942;9.104;2023-09-12T03:05:31;10.83;;;9.53;;
8104;SDS011;4095;48.942;9.104;2023-09-12T03:07:57;11.87;;;9.63;;
8104;SDS011;4095;48.942;9.104;2023-09-12T03:10:22;12.77;;;9.77;;
8104;SDS011;4095;48.942;9.104;2023-09-12T03:12:48;11.00;;;9.20;;
8104;SDS011;4095;48.942;9.104;2023-09-12T03:15:13;11.93;;;10.27;;
8104;SDS011;4095;48.942;9.104;2023-09-12T03:17:39;12.43;;;9.10;;
8104;SDS011;4095;48.942;9.104;2023-09-12T03:20:05;13.97;;;9.80;;
8104;SDS011;4095;48.942;9.104;2023-09-12T03:22:33;14.00;;;10.17;;
8104;SDS011;4095;48.942;9.104;2023-09-12T03:25:02;12.40;;;8.90;;
8104;SDS011;4095;48.942;9.104;2023-09-12T03:27:28;13.60;;;9.03;;
8104;SDS011;4095;48.942;9.104;2023-09-12T03:29:54;14.10;;;8.93;;
8104;SDS011;4095;48.942;9.104;2023-09-12T03:32:19;13.43;;;9.10;;
8104;SDS011;4095;48.942;9.104;2023-09-12T03:34:45;12.00;;;9.47;;
8104;SDS011;4095;48.942;9.104;2023-09-12T03:37:10;14.07;;;10.20;;
8104;SDS011;4095;48.942;9.104;2023-09-12T03:39:36;11.13;;;8.97;;
8104;SDS011;4095;48.942;9.104;2023-09-12T03:42:01;11.47;;;8.57;;
8104;SDS011;4095;48.942;9.104;2023-09-12T03:44:27;10.20;;;9.03;;
8104;SDS011;4095;48.942;9.104;2023-09-12T03:46:52;16.03;;;10.07;;
8104;SDS011;4095;48.942;9.104;2023-09-12T03:49:18;13.60;;;9.63;;
8104;SDS011;4095;48.942;9.104;2023-09-12T03:51:43;10.50;;;9.40;;
8104;SDS011;4095;48.942;9.104;2023-09-12T03:54:09;10.93;;;9.83;;
8104;SDS011;4095;48.942;9.104;2023-09-12T03:56:34;11.93;;;9.60;;
8104;SDS011;4095;48.942;9.104;2023-09-12T03:59:00;12.97;;;9.77;;
8104;SDS011;4095;48.942;9.104;2023-09-12T04:01:26;13.97;;;9.87;;
8104;SDS011;4095;48.942;9.104;2023-09-12T04:03:52;12.57;;;10.20;;
8104;SDS011;4095;48.942;9.104;2023-09-12T04:06:17;12.07;;;9.70;;
8104;SDS011;4095;48.942;9.104;2023-09-12T04:08:43;11.17;;;9.47;;
8104;SDS011;4095;48.942;9.104;2023-09-12T04:11:08;12.77;;;9.30;;
8104;SDS011;4095;48.942;9.104;2023-09-12T04:13:35;9.43;;;8.40;;
8104;SDS011;4095;48.942;9.104;2023-09-12T04:16:01;10.03;;;8.97;;
8104;SDS011;4095;48.942;9.104;2023-09-12T04:18:26;11.23;;;9.37;;
8104;SDS011;4095;48.942;9.104;2023-09-12T04:20:52;10.80;;;9.20;;
8104;SDS011;4095;48.942;9.104;2023-09-12T04:23:17;10.37;;;9.33;;
8104;SDS011;4095;48.942;9.104;2023-09-12T04:25:45;12.03;;;9.30;;
8104;SDS011;4095;48.942;9.104;2023-09-12T04:28:11;12.87;;;9.47;;
8104;SDS011;4095;48.942;9.104;2023-09-12T04:30:36;11.97;;;8.93;;
8104;SDS011;4095;48.942;9.104;2023-09-12T04:33:02;11.87;;;9.07;;
8104;SDS011;4095;48.942;9.104;2023-09-12T04:35:27;10.17;;;8.80;;
8104;SDS011;4095;48.942;9.104;2023-09-12T04:37:54;12.53;;;9.47;;
8104;SDS011;4095;48.942;9.104;2023-09-12T04:40:19;12.77;;;9.57;;
8104;SDS011;4095;48.942;9.104;2023-09-12T04:42:45;13.30;;;10.10;;
8104;SDS011;4095;48.942;9.104;2023-09-12T04:45:11;12.57;;;9.80;;
8104;SDS011;4095;48.942;9.104;2023-09-12T04:47:36;12.23;;;10.13;;
8104;SDS011;4095;48.942;9.104;2023-09-12T04:50:02;12.50;;;9.50;;
8104;SDS011;4095;48.942;9.104;2023-09-12T04:52:27;11.50;;;10.17;;
8104;SDS011;4095;48.942;9.104;2023-09-12T04:54:53;16.97;;;11.43;;
8104;SDS011;4095;48.942;9.104;2023-09-12T04:57:19;12.17;;;10.27;;
8104;SDS011;4095;48.942;9.104;2023-09-12T04:59:44;14.30;;;10.97;;
8104;SDS011;4095;48.942;9.104;2023-09-12T05:02:10;13.13;;;10.70;;
8104;SDS011;4095;48.942;9.104;2023-09-12T05:04:35;13.17;;;9.80;;
8104;SDS011;4095;48.942;9.104;2023-09-12T05:07:01;14.13;;;10.20;;
8104;SDS011;4095;48.942;9.104;2023-09-12T05:09:26;12.20;;;9.63;;
8104;SDS011;4095;48.942;9.104;2023-09-12T05:11:52;12.60;;;8.67;;
8104;SDS011;4095;48.942;9.104;2023-09-12T05:14:17;10.53;;;8.77;;
8104;SDS011;4095;48.942;9.104;2023-09-12T05:16:43;10.90;;;8.73;;
8104;SDS011;4095;48.942;9.104;2023-09-12T05:19:08;17.37;;;8.93;;
8104;SDS011;4095;48.942;9.104;2023-09-12T05:21:34;12.97;;;8.77;;
8104;SDS011;4095;48.942;9.104;2023-09-12T05:23:59;10.80;;;8.03;;
8104;SDS011;4095;48.942;9.104;2023-09-12T05:26:25;11.57;;;8.33;;
8104;SDS011;4095;48.942;9.104;2023-09-12T05:28:50;15.77;;;9.90;;
8104;SDS011;4095;48.942;9.104;2023-09-12T05:31:16;18.43;;;10.03;;
8104;SDS011;4095;48.942;9.104;2023-09-12T05:33:41;13.83;;;10.10;;
8104;SDS011;4095;48.942;9.104;2023-09-12T05:36:07;13.83;;;10.47;;
8104;SDS011;4095;48.942;9.104;2023-09-12T05:38:32;12.67;;;10.80;;
8104;SDS011;4095;48.942;9.104;2023-09-12T05:40:58;13.67;;;10.67;;
8104;SDS011;4095;48.942;9.104;2023-09-12T05:43:23;16.67;;;10.70;;
8104;SDS011;4095;48.942;9.104;2023-09-12T05:45:49;16.07;;;11.07;;
8104;SDS011;4095;48.942;9.104;2023-09-12T05:48:14;18.67;;;12.17;;
8104;SDS011;4095;48.942;9.104;2023-09-12T05:50:40;17.27;;;11.53;;
8104;SDS011;4095;48.942;9.104;2023-09-12T05:53:05;13.57;;;10.43;;
8104;SDS011;4095;48.942;9.104;2023-09-12T05:55:32;14.97;;;10.97;;
8104;SDS011;4095;48.942;9.104;2023-09-12T05:57:58;19.70;;;10.30;;
8104;SDS011;4095;48.942;9.104;2023-09-12T06:00:23;12.73;;;9.13;;
8104;SDS011;4095;48.942;9.104;2023-09-12T06:02:50;16.83;;;9.60;;
8104;SDS011;4095;48.942;9.104;2023-09-12T06:05:16;16.97;;;10.00;;
8104;SDS011;4095;48.942;9.104;2023-09-12T06:07:41;11.53;;;9.70;;
8104;SDS011;4095;48.942;9.104;2023-09-12T06:10:07;14.90;;;10.40;;
8104;SDS011;4095;48.942;9.104;2023-09-12T06:12:33;14.07;;;10.60;;
8104;SDS011;4095;48.942;9.104;2023-09-12T06:15:01;13.37;;;9.03;;
8104;SDS011;4095;48.942;9.104;2023-09-12T06:17:30;13.77;;;9.27;;
8104;SDS011;4095;48.942;9.104;2023-09-12T06:19:55;11.83;;;9.47;;
8104;SDS011;4095;48.942;9.104;2023-09-12T06:22:21;14.23;;;8.97;;
8104;SDS011;4095;48.942;9.104;2023-09-12T06:24:47;13.27;;;8.90;;
8104;SDS011;4095;48.942;9.104;2023-09-12T06:27:14;19.47;;;9.93;;
8104;SDS011;4095;48.942;9.104;2023-09-12T06:29:44;17.53;;;8.87;;
8104;SDS011;4095;48.942;9.104;2023-09-12T06:32:10;20.43;;;8.67;;
8104;SDS011;4095;48.942;9.104;2023-09-12T06:34:36;13.87;;;8.20;;
8104;SDS011;4095;48.942;9.104;2023-09-12T06:37:01;18.17;;;8.67;;
8104;SDS011;4095;48.942;9.104;2023-09-12T06:39:27;15.10;;;8.00;;
8104;SDS011;4095;48.942;9.104;2023-09-12T06:41:52;19.43;;;9.40;;
8104;SDS011;4095;48.942;9.104;2023-09-12T06:44:18;13.17;;;8.67;;
8104;SDS011;4095;48.942;9.104;2023-09-12T06:46:43;12.37;;;9.27;;
8104;SDS011;4095;48.942;9.104;2023-09-12T06:49:09;12.03;;;8.03;;
8104;SDS011;4095;48.942;9.104;2023-09-12T06:51:34;10.23;;;7.90;;
8104;SDS011;4095;48.942;9.104;2023-09-12T06:54:00;12.83;;;8.33;;
8104;SDS011;4095;48.942;9.104;2023-09-12T06:56:25;15.93;;;8.10;;
8104;SDS011;4095;48.942;9.104;2023-09-12T06:58:52;11.13;;;7.70;;
8104;SDS011;4095;48.942;9.104;2023-09-12T07:01:19;10.83;;;7.93;;
8104;SDS011;4095;48.942;9.104;2023-09-12T07:03:45;13.47;;;8.67;;
8104;SDS011;4095;48.942;9.104;2023-09-12T07:06:11;14.60;;;8.83;;
8104;SDS011;4095;48.942;9.104;2023-09-12T07:08:36;12.73;;;8.50;;
8104;SDS011;4095;48.942;9.104;2023-09-12T07:11:02;14.50;;;8.40;;
8104;SDS011;4095;48.942;9.104;2023-09-12T07:13:31;13.93;;;8.07;;
8104;SDS011;4095;48.942;9.104;2023-09-12T07:15:57;14.37;;;7.93;;
8104;SDS011;4095;48.942;9.104;2023-09-12T07:18:23;10.07;;;8.13;;
8104;SDS011;4095;48.942;9.104;2023-09-12T07:20:59;14.87;;;8.70;;
8104;SDS011;4095;48.942;9.104;2023-09-12T07:23:25;13.27;;;8.57;;
8104;SDS011;4095;48.942;9.104;2023-09-12T07:25:51;13.30;;;9.23;;
8104;SDS011;4095;48.942;9.104;2023-09-12T07:28:18;13.50;;;9.20;;
8104;SDS011;4095;48.942;9.104;2023-09-12T07:30:47;16.27;;;9.63;;
8104;SDS011;4095;48.942;9.104;2023-09-12T07:33:13;14.70;;;9.27;;
8104;SDS011;4095;48.942;9.104;2023-09-12T07:35:39;15.23;;;9.23;;
8104;SDS011;4095;48.942;9.104;2023-09-12T07:38:04;14.53;;;9.20;;
8104;SDS011;4095;48.942;9.104;2023-09-12T07:40:30;13.90;;;9.17;;
8104;SDS011;4095;48.942;9.104;2023-09-12T07:42:55;14.37;;;9.63;;
8104;SDS011;4095;48.942;9.104;2023-09-12T07:45:21;11.60;;;8.93;;
8104;SDS011;4095;48.942;9.104;2023-09-12T07:47:46;13.43;;;8.43;;
8104;SDS011;4095;48.942;9.104;2023-09-12T07:50:12;12.60;;;8.63;;
8104;SDS011;4095;48.942;9.104;2023-09-12T07:52:38;12.97;;;8.83;;
8104;SDS011;4095;48.942;9.104;2023-09-12T07:55:03;12.38;;;8.90;;
8104;SDS011;4095;48.942;9.104;2023-09-12T07:57:30;15.50;;;8.90;;
8104;SDS011;4095;48.942;9.104;2023-09-12T07:59:56;17.88;;;10.55;;
8104;SDS011;4095;48.942;9.104;2023-09-12T08:02:22;15.13;;;10.15;;
8104;SDS011;4095;48.942;9.104;2023-09-12T08:04:48;12.95;;;9.10;;
8104;SDS011;4095;48.942;9.104;2023-09-12T08:07:15;13.43;;;8.55;;
8104;SDS011;4095;48.942;9.104;2023-09-12T08:09:54;15.23;;;9.93;;
8104;SDS011;4095;48.942;9.104;2023-09-12T08:12:25;11.25;;;9.00;;
8104;SDS011;4095;48.942;9.104;2023-09-12T08:14:52;15.57;;;8.60;;
8104;SDS011;4095;48.942;9.104;2023-09-12T08:17:19;15.32;;;8.73;;
8104;SDS011;4095;48.942;9.104;2023-09-12T08:19:44;13.48;;;8.88;;
8104;SDS011;4095;48.942;9.104;2023-09-12T08:22:10;15.60;;;9.20;;
8104;SDS011;4095;48.942;9.104;2023-09-12T08:24:36;16.00;;;8.77;;
8104;SDS011;4095;48.942;9.104;2023-09-12T08:27:03;13.02;;;8.80;;
8104;SDS011;4095;48.942;9.104;2023-09-12T08:29:29;14.18;;;9.50;;
8104;SDS011;4095;48.942;9.104;2023-09-12T08:31:56;15.00;;;9.15;;
8104;SDS011;4095;48.942;9.104;2023-09-12T08:34:21;15.82;;;8.60;;
8104;SDS011;4095;48.942;9.104;2023-09-12T08:36:47;14.45;;;8.63;;
8104;SDS011;4095;48.942;9.104;2023-09-12T08:39:14;15.10;;;8.85;;
8104;SDS011;4095;48.942;9.104;2023-09-12T08:41:41;13.23;;;7.80;;
8104;SDS011;4095;48.942;9.104;2023-09-12T08:44:07;13.02;;;8.55;;
8104;SDS011;4095;48.942;9.104;2023-09-12T08:46:34;13.43;;;8.25;;
8104;SDS011;4095;48.942;9.104;2023-09-12T08:48:59;15.25;;;9.20;;
8104;SDS011;4095;48.942;9.104;2023-09-12T08:51:26;11.57;;;9.55;;
8104;SDS011;4095;48.942;9.104;2023-09-12T08:53:52;12.50;;;9.43;;
8104;SDS011;4095;48.942;9.104;2023-09-12T08:56:18;11.95;;;8.93;;
8104;SDS011;4095;48.942;9.104;2023-09-12T08:58:44;17.40;;;9.90;;
8104;SDS011;4095;48.942;9.104;2023-09-12T09:01:10;13.10;;;8.85;;
8104;SDS011;4095;48.942;9.104;2023-09-12T09:03:38;14.63;;;8.98;;
8104;SDS011;4095;48.942;9.104;2023-09-12T09:06:06;13.10;;;7.78;;
8104;SDS011;4095;48.942;9.104;2023-09-12T09:08:33;14.88;;;8.57;;
8104;SDS011;4095;48.942;9.104;2023-09-12T09:11:00;11.10;;;8.00;;
8104;SDS011;4095;48.942;9.104;2023-09-12T09:13:30;12.55;;;7.78;;
8104;SDS011;4095;48.942;9.104;2023-09-12T09:16:12;15.65;;;7.70;;
8104;SDS011;4095;48.942;9.104;2023-09-12T09:18:55;13.88;;;8.73;;
8104;SDS011;4095;48.942;9.104;2023-09-12T09:21:29;11.88;;;7.72;;
8104;SDS011;4095;48.942;9.104;2023-09-12T09:23:57;12.52;;;7.78;;
8104;SDS011;4095;48.942;9.104;2023-09-12T09:26:24;12.98;;;7.88;;
8104;SDS011;4095;48.942;9.104;2023-09-12T09:31:28;11.23;;;7.25;;
8104;SDS011;4095;48.942;9.104;2023-09-12T09:33:54;10.23;;;7.47;;
8104;SDS011;4095;48.942;9.104;2023-09-12T09:36:20;12.63;;;8.00;;
8104;SDS011;4095;48.942;9.104;2023-09-12T09:38:46;12.10;;;7.63;;
8104;SDS011;4095;48.942;9.104;2023-09-12T09:41:11;9.93;;;7.35;;
8104;SDS011;4095;48.942;9.104;2023-09-12T09:43:37;12.82;;;7.40;;
8104;SDS011;4095;48.942;9.104;2023-09-12T09:46:02;11.00;;;6.82;;
8104;SDS011;4095;48.942;9.104;2023-09-12T09:48:28;9.07;;;6.75;;
8104;SDS011;4095;48.942;9.104;2023-09-12T09:51:02;10.23;;;6.75;;
8104;SDS011;4095;48.942;9.104;2023-09-12T09:53:28;9.07;;;6.47;;
8104;SDS011;4095;48.942;9.104;2023-09-12T09:56:08;10.20;;;6.50;;
8104;SDS011;4095;48.942;9.104;2023-09-12T09:58:53;9.07;;;6.03;;
8104;SDS011;4095;48.942;9.104;2023-09-12T10:01:28;11.23;;;6.65;;
8104;SDS011;4095;48.942;9.104;2023-09-12T10:03:59;9.60;;;6.57;;
8104;SDS011;4095;48.942;9.104;2023-09-12T10:06:26;13.57;;;6.50;;
8104;SDS011;4095;48.942;9.104;2023-09-12T10:08:53;11.43;;;6.63;;
8104;SDS011;4095;48.942;9.104;2023-09-12T10:11:23;9.98;;;6.07;;
8104;SDS011;4095;48.942;9.104;2023-09-12T10:13:53;8.88;;;5.88;;
8104;SDS011;4095;48.942;9.104;2023-09-12T10:16:30;9.20;;;5.93;;
8104;SDS011;4095;48.942;9.104;2023-09-12T10:19:04;10.15;;;5.93;;
8104;SDS011;4095;48.942;9.104;2023-09-12T10:21:49;10.15;;;6.07;;
8104;SDS011;4095;48.942;9.104;2023-09-12T10:24:23;11.02;;;5.93;;
8104;SDS011;4095;48.942;9.104;2023-09-12T10:26:51;9.65;;;5.57;;
8104;SDS011;4095;48.942;9.104;2023-09-12T10:29:17;8.10;;;5.10;;
8104;SDS011;4095;48.942;9.104;2023-09-12T10:31:43;7.75;;;5.53;;
8104;SDS011;4095;48.942;9.104;2023-09-12T10:34:10;8.73;;;4.93;;
8104;SDS011;4095;48.942;9.104;2023-09-12T10:36:39;7.80;;;5.15;;
8104;SDS011;4095;48.942;9.104;2023-09-12T10:39:06;7.53;;;4.60;;
8104;SDS011;4095;48.942;9.104;2023-09-12T10:41:35;6.60;;;4.85;;
8104;SDS011;4095;48.942;9.104;2023-09-12T10:44:03;5.32;;;4.72;;
8104;SDS011;4095;48.942;9.104;2023-09-12T10:46:35;5.95;;;4.70;;
8104;SDS011;4095;48.942;9.104;2023-09-12T10:49:05;6.60;;;5.20;;
8104;SDS011;4095;48.942;9.104;2023-09-12T10:51:33;6.65;;;4.47;;
8104;SDS011;4095;48.942;9.104;2023-09-12T10:54:04;8.00;;;4.88;;
8104;SDS011;4095;48.942;9.104;2023-09-12T10:56:31;6.53;;;4.63;;
8104;SDS011;4095;48.942;9.104;2023-09-12T11:01:31;7.93;;;4.88;;
8104;SDS011;4095;48.942;9.104;2023-09-12T11:03:58;7.10;;;4.90;;
8104;SDS011;4095;48.942;9.104;2023-09-12T11:06:30;6.15;;;4.63;;
8104;SDS011;4095;48.942;9.104;2023-09-12T11:11:45;8.18;;;4.75;;
8104;SDS011;4095;48.942;9.104;2023-09-12T11:14:12;6.55;;;5.07;;
8104;SDS011;4095;48.942;9.104;2023-09-12T11:16:38;6.97;;;4.30;;
8104;SDS011;4095;48.942;9.104;2023-09-12T11:19:14;7.65;;;4.35;;
8104;SDS011;4095;48.942;9.104;2023-09-12T11:21:47;6.00;;;4.30;;
8104;SDS011;4095;48.942;9.104;2023-09-12T11:24:17;6.35;;;4.55;;
8104;SDS011;4095;48.942;9.104;2023-09-12T11:29:38;6.95;;;4.45;;
8104;SDS011;4095;48.942;9.104;2023-09-12T11:32:05;7.78;;;4.80;;
8104;SDS011;4095;48.942;9.104;2023-09-12T11:34:40;5.93;;;4.68;;
8104;SDS011;4095;48.942;9.104;2023-09-12T11:37:08;6.68;;;4.93;;
8104;SDS011;4095;48.942;9.104;2023-09-12T11:39:35;8.85;;;4.60;;
8104;SDS011;4095;48.942;9.104;2023-09-12T11:42:01;8.73;;;4.50;;
8104;SDS011;4095;48.942;9.104;2023-09-12T11:44:29;6.13;;;4.30;;
8104;SDS011;4095;48.942;9.104;2023-09-12T11:46:56;6.45;;;4.13;;
8104;SDS011;4095;48.942;9.104;2023-09-12T11:49:28;9.85;;;4.40;;
8104;SDS011;4095;48.942;9.104;2023-09-12T11:52:00;6.80;;;4.13;;
8104;SDS011;4095;48.942;9.104;2023-09-12T11:54:25;6.53;;;4.47;;
8104;SDS011;4095;48.942;9.104;2023-09-12T11:56:52;5.72;;;4.07;;
8104;SDS011;4095;48.942;9.104;2023-09-12T11:59:28;7.35;;;4.32;;
8104;SDS011;4095;48.942;9.104;2023-09-12T12:01:54;6.28;;;4.10;;
8104;SDS011;4095;48.942;9.104;2023-09-12T12:04:21;6.10;;;4.22;;
8104;SDS011;4095;48.942;9.104;2023-09-12T12:06:48;5.32;;;3.97;;
8104;SDS011;4095;48.942;9.104;2023-09-12T12:09:15;6.65;;;4.38;;
8104;SDS011;4095;48.942;9.104;2023-09-12T12:11:44;6.65;;;4.38;;
8104;SDS011;4095;48.942;9.104;2023-09-12T12:14:10;5.53;;;4.22;;
8104;SDS011;4095;48.942;9.104;2023-09-12T12:16:37;6.03;;;4.05;;
8104;SDS011;4095;48.942;9.104;2023-09-12T12:19:02;8.27;;;4.53;;
8104;SDS011;4095;48.942;9.104;2023-09-12T12:21:28;4.70;;;3.75;;
8104;SDS011;4095;48.942;9.104;2023-09-12T12:23:57;6.30;;;4.85;;
8104;SDS011;4095;48.942;9.104;2023-09-12T12:26:24;8.93;;;4.80;;
8104;SDS011;4095;48.942;9.104;2023-09-12T12:28:51;6.75;;;4.80;;
8104;SDS011;4095;48.942;9.104;2023-09-12T12:31:16;7.22;;;4.38;;
8104;SDS011;4095;48.942;9.104;2023-09-12T12:33:47;5.57;;;4.72;;
8104;SDS011;4095;48.942;9.104;2023-09-12T12:36:13;7.03;;;4.75;;
8104;SDS011;4095;48.942;9.104;2023-09-12T12:38:39;8.02;;;4.90;;
8104;SDS011;4095;48.942;9.104;2023-09-12T12:41:08;7.00;;;4.50;;
8104;SDS011;4095;48.942;9.104;2023-09-12T12:43:34;5.55;;;4.10;;
8104;SDS011;4095;48.942;9.104;2023-09-12T12:45:59;8.40;;;5.35;;
8104;SDS011;4095;48.942;9.104;2023-09-12T12:48:29;6.80;;;5.00;;
8104;SDS011;4095;48.942;9.104;2023-09-12T12:50:59;7.70;;;4.90;;
8104;SDS011;4095;48.942;9.104;2023-09-12T12:53:40;10.35;;;5.45;;
8104;SDS011;4095;48.942;9.104;2023-09-12T12:56:06;8.98;;;5.10;;
8104;SDS011;4095;48.942;9.104;2023-09-12T12:58:32;6.70;;;4.95;;
8104;SDS011;4095;48.942;9.104;2023-09-12T13:00:59;5.95;;;4.68;;
8104;SDS011;4095;48.942;9.104;2023-09-12T13:03:24;7.03;;;5.38;;
8104;SDS011;4095;48.942;9.104;2023-09-12T13:05:50;7.38;;;5.10;;
8104;SDS011;4095;48.942;9.104;2023-09-12T13:08:15;7.47;;;5.07;;
8104;SDS011;4095;48.942;9.104;2023-09-12T13:10:41;9.10;;;5.68;;
8104;SDS011;4095;48.942;9.104;2023-09-12T13:13:07;7.35;;;5.35;;
8104;SDS011;4095;48.942;9.104;2023-09-12T13:15:33;8.82;;;5.03;;
8104;SDS011;4095;48.942;9.104;2023-09-12T13:17:58;7.43;;;5.10;;
8104;SDS011;4095;48.942;9.104;2023-09-12T13:20:24;7.60;;;5.95;;
8104;SDS011;4095;48.942;9.104;2023-09-12T13:22:50;7.32;;;5.30;;
8104;SDS011;4095;48.942;9.104;2023-09-12T13:25:15;9.07;;;5.30;;
8104;SDS011;4095;48.942;9.104;2023-09-12T13:27:41;6.50;;;5.75;;
8104;SDS011;4095;48.942;9.104;2023-09-12T13:30:06;6.55;;;5.00;;
8104;SDS011;4095;48.942;9.104;2023-09-12T13:32:32;6.53;;;5.20;;
8104;SDS011;4095;48.942;9.104;2023-09-12T13:34:58;8.35;;;5.57;;
8104;SDS011;4095;48.942;9.104;2023-09-12T13:37:23;7.85;;;5.47;;
8104;SDS011;4095;48.942;9.104;2023-09-12T13:39:49;7.47;;;5.70;;
8104;SDS011;4095;48.942;9.104;2023-09-12T13:42:15;5.45;;;4.40;;
8104;SDS011;4095;48.942;9.104;2023-09-12T13:44:46;6.03;;;4.75;;
8104;SDS011;4095;48.942;9.104;2023-09-12T13:47:13;8.25;;;4.97;;
8104;SDS011;4095;48.942;9.104;2023-09-12T13:49:38;8.05;;;4.70;;
8104;SDS011;4095;48.942;9.104;2023-09-12T13:52:04;6.63;;;4.45;;
8104;SDS011;4095;48.942;9.104;2023-09-12T13:54:30;7.78;;;4.28;;
8104;SDS011;4095;48.942;9.104;2023-09-12T13:56:56;4.80;;;4.35;;
8104;SDS011;4095;48.942;9.104;2023-09-12T13:59:22;4.85;;;4.35;;
8104;SDS011;4095;48.942;9.104;2023-09-12T14:01:47;6.10;;;4.63;;
8104;SDS011;4095;48.942;9.104;2023-09-12T14:04:13;6.35;;;4.40;;
8104;SDS011;4095;48.942;9.104;2023-09-12T14:06:39;5.03;;;4.47;;
8104;SDS011;4095;48.942;9.104;2023-09-12T14:09:05;5.05;;;4.55;;
8104;SDS011;4095;48.942;9.104;2023-09-12T14:11:30;5.47;;;4.78;;
8104;SDS011;4095;48.942;9.104;2023-09-12T14:13:56;5.00;;;4.50;;
8104;SDS011;4095;48.942;9.104;2023-09-12T14:16:21;5.72;;;4.72;;
8104;SDS011;4095;48.942;9.104;2023-09-12T14:18:47;5.10;;;4.65;;
8104;SDS011;4095;48.942;9.104;2023-09-12T14:21:12;7.90;;;5.03;;
8104;SDS011;4095;48.942;9.104;2023-09-12T14:23:38;8.40;;;4.85;;
8104;SDS011;4095;48.942;9.104;2023-09-12T14:26:03;5.70;;;4.80;;
8104;SDS011;4095;48.942;9.104;2023-09-12T14:28:29;4.90;;;4.40;;
8104;SDS011;4095;48.942;9.104;2023-09-12T14:30:57;5.30;;;4.80;;
8104;SDS011;4095;48.942;9.104;2023-09-12T14:33:22;5.72;;;5.10;;
8104;SDS011;4095;48.942;9.104;2023-09-12T14:35:48;7.15;;;4.55;;
8104;SDS011;4095;48.942;9.104;2023-09-12T14:38:13;7.00;;;4.78;;
8104;SDS011;4095;48.942;9.104;2023-09-12T14:40:39;6.40;;;4.60;;
8104;SDS011;4095;48.942;9.104;2023-09-12T14:43:05;7.00;;;4.75;;
8104;SDS011;4095;48.942;9.104;2023-09-12T14:45:30;5.75;;;5.10;;
8104;SDS011;4095;48.942;9.104;2023-09-12T14:47:56;5.32;;;4.65;;
8104;SDS011;4095;48.942;9.104;2023-09-12T14:50:22;5.68;;;4.50;;
8104;SDS011;4095;48.942;9.104;2023-09-12T14:52:49;6.15;;;4.50;;
8104;SDS011;4095;48.942;9.104;2023-09-12T14:55:15;5.82;;;4.28;;
8104;SDS011;4095;48.942;9.104;2023-09-12T14:57:41;6.57;;;4.50;;
8104;SDS011;4095;48.942;9.104;2023-09-12T15:00:06;7.55;;;4.70;;
8104;SDS011;4095;48.942;9.104;2023-09-12T15:02:32;6.93;;;4.68;;
8104;SDS011;4095;48.942;9.104;2023-09-12T15:05:01;5.15;;;4.65;;
8104;SDS011;4095;48.942;9.104;2023-09-12T15:07:28;5.72;;;5.20;;
8104;SDS011;4095;48.942;9.104;2023-09-12T15:09:58;5.15;;;4.65;;
8104;SDS011;4095;48.942;9.104;2023-09-12T15:12:24;7.03;;;4.88;;
8104;SDS011;4095;48.942;9.104;2023-09-12T15:14:50;5.28;;;4.78;;
8104;SDS011;4095;48.942;9.104;2023-09-12T15:17:16;7.57;;;4.70;;